GBLDV EGEW-EGEP
Flight info
| Callsign | GBLDV |
|---|---|
| Flight time | 0h -11m |
| Altitude | 2400 |
| Route | 5921N00257W 5921N00256W 5921N00254W |
| Aircraft | BN2P/L-V/N |
Departure
| Time | 2026-04-27 16:48 |
|---|---|
| Airport | Westray Airport (EGEW) |
Arrival
| Time | 2026-04-27 16:37 |
|---|---|
| Airport | Papa Westray Airport (EGEP) |
| Time | Latitude | Longitude | Altitude | Speed | Heading |
|---|---|---|---|---|---|
| 2026-04-27 16:37 | 59.35135 | -2.89892 | 90 ft | 0 kts | 246° |
| 2026-04-27 16:37 | 59.35134 | -2.89947 | 87 ft | 10 kts | 277° |
| 2026-04-27 16:38 | 59.35092 | -2.90023 | 89 ft | 23 kts | 207° |
| 2026-04-27 16:38 | 59.34923 | -2.90217 | 93 ft | 21 kts | 215° |
| 2026-04-27 16:38 | 59.34899 | -2.90240 | 92 ft | 1 kts | 130° |
| 2026-04-27 16:38 | 59.34907 | -2.90224 | 93 ft | 3 kts | 27° |
| 2026-04-27 16:39 | 59.34912 | -2.90219 | 93 ft | 0 kts | 27° |
| 2026-04-27 16:39 | 59.35096 | -2.90033 | 90 ft | 70 kts | 27° |
| 2026-04-27 16:40 | 59.35621 | -2.89892 | 324 ft | 95 kts | 315° |
| 2026-04-27 16:40 | 59.35381 | -2.91181 | 369 ft | 130 kts | 221° |
| 2026-04-27 16:40 | 59.34645 | -2.92364 | 477 ft | 132 kts | 221° |
| 2026-04-27 16:40 | 59.34081 | -2.93478 | 597 ft | 113 kts | 237° |
| 2026-04-27 16:41 | 59.33917 | -2.94875 | 534 ft | 109 kts | 278° |
| 2026-04-27 16:41 | 59.34074 | -2.96321 | 449 ft | 106 kts | 286° |
| 2026-04-27 16:41 | 59.34564 | -2.96848 | 429 ft | 97 kts | 22° |
| 2026-04-27 16:41 | 59.34960 | -2.95858 | 86 ft | 93 kts | 83° |
| 2026-04-27 16:42 | 59.35019 | -2.94817 | 37 ft | 41 kts | 84° |
| 2026-04-27 16:42 | 59.35022 | -2.94566 | 33 ft | 2 kts | 98° |
| 2026-04-27 16:42 | 59.35023 | -2.94562 | 33 ft | 0 kts | 54° |
| 2026-04-27 16:42 | 59.35029 | -2.94560 | 33 ft | 1 kts | 337° |
| 2026-04-27 16:43 | 59.35028 | -2.94584 | 34 ft | 10 kts | 261° |
| 2026-04-27 16:43 | 59.35017 | -2.94777 | 37 ft | 7 kts | 260° |
| 2026-04-27 16:43 | 59.35011 | -2.94866 | 37 ft | 9 kts | 263° |
| 2026-04-27 16:43 | 59.35000 | -2.95016 | 35 ft | 11 kts | 252° |
| 2026-04-27 16:44 | 59.35004 | -2.95123 | 36 ft | 5 kts | 322° |
| 2026-04-27 16:44 | 59.35053 | -2.95134 | 34 ft | 13 kts | 358° |
| 2026-04-27 16:44 | 59.35105 | -2.95124 | 33 ft | 1 kts | 5° |
| 2026-04-27 16:44 | 59.35107 | -2.95133 | 32 ft | 4 kts | 216° |
| 2026-04-27 16:45 | 59.35044 | -2.95132 | 34 ft | 10 kts | 181° |
| 2026-04-27 16:45 | 59.35004 | -2.95136 | 36 ft | 2 kts | 217° |
| 2026-04-27 16:45 | 59.34994 | -2.95256 | 39 ft | 19 kts | 267° |
| 2026-04-27 16:45 | 59.34984 | -2.95414 | 36 ft | 0 kts | 214° |
| 2026-04-27 16:46 | 59.34983 | -2.95415 | 36 ft | 3 kts | 190° |
| 2026-04-27 16:46 | 59.34972 | -2.95410 | 39 ft | 0 kts | 145° |
| 2026-04-27 16:46 | 59.34971 | -2.95406 | 39 ft | 2 kts | 95° |
| 2026-04-27 16:46 | 59.34999 | -2.95086 | 35 ft | 51 kts | 81° |
| 2026-04-27 16:47 | 59.35002 | -2.94181 | 136 ft | 70 kts | 101° |
| 2026-04-27 16:47 | 59.34800 | -2.93335 | 328 ft | 71 kts | 124° |
| 2026-04-27 16:47 | 59.34453 | -2.92496 | 433 ft | 84 kts | 127° |
| 2026-04-27 16:47 | 59.34349 | -2.91447 | 544 ft | 90 kts | 74° |
| 2026-04-27 16:48 | 59.34568 | -2.90610 | 358 ft | 109 kts | 32° |
| 2026-04-27 16:48 | 59.35204 | -2.89955 | 662 ft | 94 kts | 34° |
| 2026-04-27 16:48 | 59.35741 | -2.89217 | 784 ft | 98 kts | 50° |
| 2026-04-27 16:49 | 59.35133 | -2.89312 | 772 ft | 108 kts | 258° |
| 2026-04-27 16:49 | 59.34461 | -2.90034 | 486 ft | 136 kts | 183° |
| 2026-04-27 16:49 | 59.33609 | -2.90148 | 641 ft | 112 kts | 251° |
| 2026-04-27 16:49 | 59.34224 | -2.90448 | 326 ft | 108 kts | 356° |
| 2026-04-27 16:50 | 59.34883 | -2.90255 | 116 ft | 86 kts | 20° |
| 2026-04-27 16:50 | 59.35297 | -2.89795 | 90 ft | 29 kts | 73° |
| 2026-04-27 16:50 | 59.35204 | -2.89760 | 89 ft | 15 kts | 204° |
| 2026-04-27 16:50 | 59.35121 | -2.89828 | 88 ft | 10 kts | 202° |
| 2026-04-27 16:51 | 59.35084 | -2.89859 | 90 ft | 0 kts | 203° |
| 2026-04-27 16:51 | 59.35045 | -2.89969 | 91 ft | 20 kts | 227° |
| 2026-04-27 16:51 | 59.34969 | -2.90177 | 93 ft | 9 kts | 230° |
| 2026-04-27 16:51 | 59.34933 | -2.90216 | 92 ft | 0 kts | 181° |